Time;durP1;ratioP1;P1;durP2;ratioP2;P2;SDS_P1;SDS_P2;PMS_P1;PMS_P2;Temp;Humidity;BMP_temperature;BMP_pressure;BME280_temperature;BME280_humidity;BME280_pressure;Samples;Min_cycle;Max_cycle;Signal;HPM_P1;HPM_P2
2023/10/07 00:00:51;;;;;;;17.15;11.43;;;8.40;99.90;;;;;;6091645;23;20459;-77
2023/10/07 00:03:20;;;;;;;16.80;11.57;;;8.40;99.90;;;;;;6097736;23;20018;-77
2023/10/07 00:05:50;;;;;;;28.98;20.20;;;8.30;99.90;;;;;;6094672;23;20031;-77
2023/10/07 00:08:19;;;;;;;31.90;19.25;;;8.30;99.90;;;;;;6077244;23;20026;-76
2023/10/07 00:10:49;;;;;;;18.55;11.57;;;8.20;99.90;;;;;;6099382;23;20022;-77
2023/10/07 00:13:19;;;;;;;20.55;12.60;;;8.20;99.90;;;;;;6092728;23;20023;-79
2023/10/07 00:15:51;;;;;;;16.45;9.23;;;8.20;99.90;;;;;;6065222;23;20026;-76
2023/10/07 00:18:19;;;;;;;15.20;9.52;;;8.20;99.90;;;;;;6066284;23;20380;-78
2023/10/07 00:20:51;;;;;;;17.08;9.98;;;8.20;99.90;;;;;;6086864;23;20027;-77
2023/10/07 00:23:21;;;;;;;16.10;9.38;;;8.10;99.90;;;;;;6070341;23;20018;-77
2023/10/07 00:25:50;;;;;;;17.38;8.65;;;8.10;99.90;;;;;;6071726;23;20057;-76
2023/10/07 00:28:27;;;;;;;17.52;8.90;;;8.20;99.90;;;;;;6084478;23;20074;-76
2023/10/07 00:30:55;;;;;;;15.60;9.27;;;8.10;99.90;;;;;;6092622;23;20101;-79
2023/10/07 00:33:23;;;;;;;19.73;10.75;;;8.10;99.90;;;;;;6091282;23;20030;-76
2023/10/07 00:35:53;;;;;;;18.23;10.30;;;8.00;99.90;;;;;;6095896;23;20372;-76
2023/10/07 00:38:24;;;;;;;17.73;9.93;;;8.00;99.90;;;;;;6090469;23;20019;-76
2023/10/07 00:40:53;;;;;;;15.80;9.27;;;8.00;99.90;;;;;;6121373;23;20031;-76
2023/10/07 00:43:30;;;;;;;19.42;10.10;;;8.00;99.90;;;;;;6091076;23;20030;-76
2023/10/07 00:46:10;;;;;;;16.77;9.15;;;8.00;99.90;;;;;;6091698;23;20014;-76
2023/10/07 00:48:47;;;;;;;17.90;9.75;;;7.90;99.90;;;;;;6090510;23;20029;-74
2023/10/07 00:51:24;;;;;;;17.65;10.13;;;7.90;99.90;;;;;;6093948;23;20074;-75
2023/10/07 00:53:53;;;;;;;15.63;9.95;;;7.90;99.90;;;;;;6095354;23;20027;-75
2023/10/07 00:56:25;;;;;;;17.83;9.75;;;7.90;99.90;;;;;;6084608;23;20056;-75
2023/10/07 00:58:55;;;;;;;16.48;9.00;;;8.00;99.90;;;;;;6071440;23;20106;-76
2023/10/07 01:01:22;;;;;;;13.85;8.23;;;8.00;99.90;;;;;;6061826;23;20042;-76
2023/10/07 01:03:51;;;;;;;18.70;9.05;;;7.90;99.90;;;;;;6073434;23;20019;-75
2023/10/07 01:06:31;;;;;;;15.77;8.15;;;7.90;99.90;;;;;;6075014;23;20023;-76
2023/10/07 01:09:07;;;;;;;16.40;9.80;;;7.90;99.90;;;;;;6095095;23;20448;-77
2023/10/07 01:11:40;;;;;;;17.40;9.70;;;7.80;99.90;;;;;;6074761;23;20042;-77
2023/10/07 01:14:09;;;;;;;16.55;9.85;;;7.70;99.90;;;;;;6071319;23;20535;-75
2023/10/07 01:16:44;;;;;;;18.52;10.35;;;7.70;99.90;;;;;;6070987;23;20023;-77
2023/10/07 01:22:11;;;;;;;15.07;9.85;;;7.60;99.90;;;;;;6040031;23;20124;-77
2023/10/07 01:24:46;;;;;;;16.25;10.52;;;7.70;99.90;;;;;;6062932;23;20110;-77
2023/10/07 01:30:07;;;;;;;18.60;12.65;;;7.50;99.90;;;;;;6061525;23;20019;-79
2023/10/07 01:32:42;;;;;;;16.27;10.52;;;7.40;99.90;;;;;;6067869;23;20395;-76
2023/10/07 01:35:11;;;;;;;;;;;7.30;99.90;;;;;;6071757;23;20103;-76
2023/10/07 01:37:43;;;;;;;14.77;9.27;;;7.30;99.90;;;;;;6072210;23;19981;-78
2023/10/07 01:40:16;;;;;;;15.38;9.15;;;7.30;99.90;;;;;;6086544;23;20340;-76
2023/10/07 01:42:47;;;;;;;17.27;8.98;;;7.30;99.90;;;;;;6085994;23;20034;-75
2023/10/07 01:45:22;;;;;;;15.52;9.52;;;7.30;99.90;;;;;;6069993;23;20022;-75
2023/10/07 01:47:53;;;;;;;15.47;8.53;;;7.40;99.90;;;;;;6091062;23;20027;-76
2023/10/07 01:50:21;;;;;;;14.10;8.23;;;7.40;99.90;;;;;;6086149;23;20470;-78
2023/10/07 01:52:49;;;;;;;14.18;9.48;;;7.40;99.90;;;;;;6061880;23;20031;-77
2023/10/07 01:55:19;;;;;;;15.90;8.90;;;7.30;99.90;;;;;;6062860;23;20325;-76
2023/10/07 01:57:50;;;;;;;18.65;9.88;;;7.30;99.90;;;;;;6093261;23;20109;-78
2023/10/07 02:00:37;;;;;;;15.27;9.68;;;7.10;99.90;;;;;;6092432;23;20022;-77
2023/10/07 02:03:13;;;;;;;;;;;7.10;99.90;;;;;;6097089;23;20094;-76
2023/10/07 02:05:50;;;;;;;16.83;9.97;;;7.20;99.90;;;;;;6093134;23;19964;-72
2023/10/07 02:08:24;;;;;;;16.10;9.90;;;7.20;99.90;;;;;;6094834;23;20062;-76
2023/10/07 02:10:57;;;;;;;17.17;9.75;;;7.20;99.90;;;;;;6069565;23;20023;-76
2023/10/07 02:13:27;;;;;;;13.98;9.40;;;7.20;99.90;;;;;;6092838;23;20518;-77
2023/10/07 02:15:56;;;;;;;16.25;9.45;;;7.20;99.90;;;;;;6117483;23;20089;-76
2023/10/07 02:18:26;;;;;;;18.45;9.02;;;7.20;99.90;;;;;;6092199;23;20110;-77
2023/10/07 02:21:06;;;;;;;14.55;8.07;;;7.20;99.90;;;;;;6097439;23;20026;-75
2023/10/07 02:23:37;;;;;;;12.60;6.70;;;7.20;99.90;;;;;;6095845;23;20029;-76
2023/10/07 02:26:14;;;;;;;12.63;7.18;;;7.20;99.90;;;;;;6122319;23;20106;-77
2023/10/07 02:28:43;;;;;;;15.85;8.43;;;7.20;99.90;;;;;;6101520;23;20018;-77
2023/10/07 02:31:17;;;;;;;18.70;9.13;;;7.10;99.90;;;;;;6103469;23;20015;-76
2023/10/07 02:33:46;;;;;;;13.50;7.60;;;7.00;99.90;;;;;;6093535;23;20050;-76
2023/10/07 02:36:28;;;;;;;16.23;8.65;;;7.00;99.90;;;;;;6095127;23;20026;-77
2023/10/07 02:38:56;;;;;;;20.40;9.35;;;6.90;99.90;;;;;;6096357;23;20027;-76
2023/10/07 02:41:25;;;;;;;15.95;9.10;;;6.90;99.90;;;;;;6094751;23;20022;-77
2023/10/07 02:43:53;;;;;;;20.67;10.50;;;6.90;99.90;;;;;;6094711;23;20094;-77
2023/10/07 02:46:31;;;;;;;16.40;9.52;;;6.90;99.90;;;;;;6121096;23;20010;-77
2023/10/07 02:49:05;;;;;;;15.52;8.77;;;6.80;99.90;;;;;;6122592;23;20372;-76
2023/10/07 02:51:34;;;;;;;18.60;9.23;;;6.70;99.90;;;;;;6127319;23;20054;-76
2023/10/07 02:54:06;;;;;;;22.02;11.57;;;6.70;99.90;;;;;;6136917;23;20041;-77
2023/10/07 02:56:44;;;;;;;14.65;9.15;;;6.80;99.90;;;;;;6111418;23;20383;-76
2023/10/07 03:02:18;;;;;;;17.33;8.80;;;6.80;99.90;;;;;;6092832;23;20029;-77
2023/10/07 03:04:59;;;;;;;14.73;9.45;;;6.80;99.90;;;;;;6118910;23;20026;-78
2023/10/07 03:07:26;;;;;;;16.60;10.05;;;6.70;99.90;;;;;;6075231;23;20011;-76
2023/10/07 03:10:04;;;;;;;14.30;9.80;;;6.70;99.90;;;;;;6116001;23;20077;-78
2023/10/07 03:12:36;;;;;;;15.27;10.07;;;6.70;99.90;;;;;;6067340;23;20051;-76
2023/10/07 03:15:20;;;;;;;16.13;9.50;;;6.70;99.90;;;;;;6087148;23;20517;-78
2023/10/07 03:17:47;;;;;;;15.10;9.73;;;6.60;99.90;;;;;;6097624;23;20456;-76
2023/10/07 03:20:28;;;;;;;17.33;10.82;;;6.70;99.90;;;;;;6061983;23;20031;-78
2023/10/07 03:23:14;;;;;;;17.83;11.52;;;6.60;99.90;;;;;;6079567;23;20023;-77
2023/10/07 03:26:05;;;;;;;20.08;13.18;;;6.50;99.90;;;;;;6096149;23;20452;-77
2023/10/07 03:28:47;;;;;;;20.50;12.32;;;6.50;99.90;;;;;;6074870;23;20027;-78
2023/10/07 03:31:18;;;;;;;17.85;10.65;;;6.30;99.90;;;;;;6102380;23;20029;-77
2023/10/07 03:33:48;;;;;;;18.10;10.82;;;6.30;99.90;;;;;;6092666;23;20025;-77
2023/10/07 03:36:40;;;;;;;13.88;9.40;;;6.30;99.90;;;;;;6090451;23;20053;-76
2023/10/07 03:39:23;;;;;;;16.63;9.38;;;6.20;99.90;;;;;;6094828;23;20447;-77
2023/10/07 03:41:55;;;;;;;16.83;8.98;;;6.40;99.90;;;;;;6115691;23;20113;-77
2023/10/07 03:44:26;;;;;;;13.32;8.70;;;6.40;99.90;;;;;;6098308;23;20050;-76
2023/10/07 03:46:57;;;;;;;13.70;8.68;;;6.40;99.90;;;;;;6099456;23;20093;-77
2023/10/07 03:49:33;;;;;;;14.50;8.38;;;6.50;99.90;;;;;;6101994;23;20094;-77
2023/10/07 03:52:07;;;;;;;13.25;8.27;;;6.50;99.90;;;;;;6102687;23;20053;-78
2023/10/07 03:54:35;;;;;;;12.00;8.52;;;6.40;99.90;;;;;;6093126;23;20027;-77
2023/10/07 03:57:02;;;;;;;19.38;10.18;;;6.30;99.90;;;;;;6095274;23;20022;-76
2023/10/07 03:59:34;;;;;;;16.17;9.60;;;6.10;99.90;;;;;;6096687;23;20022;-79
2023/10/07 04:02:12;;;;;;;21.27;9.75;;;6.00;99.90;;;;;;6099293;23;20077;-77
2023/10/07 04:04:41;;;;;;;14.18;8.90;;;6.10;99.90;;;;;;6100273;23;20045;-77
2023/10/07 04:07:10;;;;;;;15.77;9.60;;;6.20;99.90;;;;;;6103665;23;20089;-77
2023/10/07 04:09:38;;;;;;;14.25;8.68;;;6.20;99.90;;;;;;6096070;23;20030;-77
2023/10/07 04:12:06;;;;;;;16.88;9.32;;;6.20;99.90;;;;;;6095244;23;20034;-78
2023/10/07 04:14:35;;;;;;;13.88;9.48;;;6.20;99.90;;;;;;6096781;23;20028;-77
2023/10/07 04:17:11;;;;;;;14.60;9.48;;;6.20;99.90;;;;;;6098708;23;20454;-77
2023/10/07 04:19:40;;;;;;;;;;;6.20;99.90;;;;;;6102129;23;20565;-76
2023/10/07 04:22:09;;;;;;;16.20;9.70;;;6.30;99.90;;;;;;6124482;23;19921;-77
2023/10/07 04:24:44;;;;;;;17.85;10.02;;;6.20;99.90;;;;;;6095654;23;20232;-78
2023/10/07 04:27:18;;;;;;;15.30;9.93;;;6.20;99.90;;;;;;6095657;23;20022;-78
2023/10/07 04:29:51;;;;;;;15.45;9.50;;;6.00;99.90;;;;;;6096868;23;20113;-77
2023/10/07 04:32:22;;;;;;;14.75;8.70;;;6.00;99.90;;;;;;6098047;23;20463;-78
2023/10/07 04:35:06;;;;;;;14.77;7.90;;;6.20;99.90;;;;;;6100863;23;20097;-78
2023/10/07 04:37:47;;;;;;;12.25;8.40;;;6.10;99.90;;;;;;6102176;23;20117;-78
2023/10/07 04:43:25;;;;;;;14.40;9.60;;;6.10;99.90;;;;;;6092493;23;20105;-77
2023/10/07 04:45:49;;;;;;;17.20;9.82;;;6.10;99.90;;;;;;6092487;23;20379;-77
2023/10/07 04:48:40;;;;;;;18.80;11.93;;;6.10;99.90;;;;;;6089894;23;20026;-77
2023/10/07 04:51:12;;;;;;;17.08;10.23;;;6.00;99.90;;;;;;6093845;23;20015;-77
2023/10/07 04:53:39;;;;;;;21.42;11.60;;;6.00;99.90;;;;;;6072797;23;20122;-76
2023/10/07 04:56:20;;;;;;;18.58;12.25;;;6.10;99.90;;;;;;6065865;23;20027;-84
2023/10/07 04:58:51;;;;;;;23.63;12.20;;;6.00;99.90;;;;;;6111574;23;20098;-83
2023/10/07 05:01:30;;;;;;;23.35;13.63;;;5.90;99.90;;;;;;6109700;23;20037;-83
2023/10/07 05:04:04;;;;;;;21.83;13.98;;;5.70;99.90;;;;;;6118608;23;20022;-84
2023/10/07 05:06:34;;;;;;;21.98;12.75;;;5.70;99.90;;;;;;6145207;23;20385;-85
2023/10/07 05:09:03;;;;;;;18.38;12.18;;;5.70;99.90;;;;;;6148454;23;20026;-83
2023/10/07 05:11:29;;;;;;;18.23;10.80;;;5.80;99.90;;;;;;6116366;23;20074;-84
2023/10/07 05:13:57;;;;;;;20.77;10.75;;;5.90;99.90;;;;;;6117672;23;20057;-82
2023/10/07 05:16:26;;;;;;;23.45;11.70;;;5.90;99.90;;;;;;6147404;23;20046;-84
2023/10/07 05:18:53;;;;;;;21.48;11.23;;;6.00;99.90;;;;;;6113379;23;20029;-84
2023/10/07 05:21:22;;;;;;;18.45;11.38;;;6.00;99.90;;;;;;6131798;23;20332;-85
2023/10/07 05:23:50;;;;;;;22.10;12.20;;;6.10;99.90;;;;;;6114646;23;20061;-83
2023/10/07 05:26:18;;;;;;;27.00;13.43;;;6.10;99.90;;;;;;6141909;23;20022;-85
2023/10/07 05:28:46;;;;;;;26.23;11.40;;;6.20;99.90;;;;;;6135396;23;20049;-83
2023/10/07 05:31:17;;;;;;;25.60;11.35;;;6.20;99.90;;;;;;6137232;23;20025;-84
2023/10/07 05:33:47;;;;;;;16.80;10.55;;;6.30;99.90;;;;;;6109970;23;20027;-84
2023/10/07 05:36:17;;;;;;;22.00;10.55;;;6.50;99.90;;;;;;6109374;23;20022;-83
2023/10/07 05:38:47;;;;;;;28.67;14.68;;;6.50;99.90;;;;;;6092539;23;20383;-83
2023/10/07 05:41:16;;;;;;;18.83;10.70;;;6.50;99.90;;;;;;6134163;23;20034;-83
2023/10/07 05:43:48;;;;;;;54.22;16.33;;;6.50;99.90;;;;;;6135066;23;20028;-83
2023/10/07 05:46:19;;;;;;;37.55;13.35;;;6.60;99.90;;;;;;6101025;23;20339;-81
2023/10/07 05:48:51;;;;;;;19.27;11.23;;;6.60;99.90;;;;;;6125180;23;20487;-82
2023/10/07 05:51:23;;;;;;;53.83;17.05;;;6.60;99.90;;;;;;6125017;23;20033;-84
2023/10/07 05:54:05;;;;;;;22.13;13.82;;;6.60;99.90;;;;;;6102848;23;20426;-84
2023/10/07 05:56:33;;;;;;;19.60;11.90;;;6.70;99.90;;;;;;6129434;23;20096;-85
2023/10/07 05:59:06;;;;;;;26.05;12.68;;;6.80;99.90;;;;;;6127717;23;20033;-83
2023/10/07 06:01:34;;;;;;;18.42;11.38;;;6.90;99.90;;;;;;6129613;23;20029;-84
2023/10/07 06:04:03;;;;;;;23.52;12.48;;;7.10;99.90;;;;;;6132160;23;20026;-85
2023/10/07 06:06:32;;;;;;;19.48;12.25;;;7.20;99.90;;;;;;6127399;23;20028;-87
2023/10/07 06:09:03;;;;;;;23.27;11.25;;;7.30;99.90;;;;;;6154791;23;20113;-84
2023/10/07 06:11:31;;;;;;;19.83;10.48;;;7.40;99.90;;;;;;6138159;23;20049;-85
2023/10/07 06:14:00;;;;;;;21.67;11.40;;;7.60;99.90;;;;;;6137321;23;20054;-86
2023/10/07 06:16:29;;;;;;;21.45;12.07;;;7.80;99.90;;;;;;6140309;23;20014;-84
2023/10/07 06:18:58;;;;;;;19.45;10.95;;;8.00;99.90;;;;;;6141983;23;20078;-84
2023/10/07 06:21:29;;;;;;;21.88;10.40;;;8.30;99.90;;;;;;6125549;23;20073;-86
2023/10/07 06:24:13;;;;;;;19.67;9.38;;;8.60;99.90;;;;;;6126626;23;20053;-87
2023/10/07 06:26:43;;;;;;;22.90;10.43;;;8.80;99.90;;;;;;6132869;23;20030;-85
2023/10/07 06:29:18;;;;;;;17.00;8.80;;;9.10;99.90;;;;;;6139415;23;20054;-82
2023/10/07 06:32:12;;;;;;;16.10;8.73;;;9.50;99.90;;;;;;6156330;23;20014;-83
2023/10/07 06:34:51;;;;;;;14.57;8.70;;;9.70;99.90;;;;;;6139847;23;20045;-86
2023/10/07 06:37:29;;;;;;;17.23;10.65;;;10.00;99.90;;;;;;6137602;23;20022;-85
2023/10/07 06:39:58;;;;;;;17.58;8.65;;;10.20;99.90;;;;;;6127191;23;20105;-84
2023/10/07 06:42:27;;;;;;;23.45;10.05;;;10.30;99.90;;;;;;6125021;23;20109;-87
2023/10/07 06:44:56;;;;;;;21.88;11.35;;;10.40;99.90;;;;;;6151598;23;20093;-87
2023/10/07 06:47:29;;;;;;;16.42;10.05;;;10.50;99.90;;;;;;6123632;23;20022;-85
2023/10/07 06:49:58;;;;;;;16.27;9.25;;;10.60;99.90;;;;;;6135429;23;20033;-84
2023/10/07 06:52:27;;;;;;;22.17;12.77;;;10.70;99.90;;;;;;6157141;23;20021;-86
2023/10/07 06:55:19;;;;;;;17.80;11.40;;;10.90;99.90;;;;;;6145462;23;20014;-87
2023/10/07 06:57:47;;;;;;;19.70;10.18;;;11.00;99.90;;;;;;6128354;23;20021;-81
2023/10/07 07:00:24;;;;;;;18.33;9.88;;;11.20;99.90;;;;;;6125076;23;20526;-84
2023/10/07 07:02:57;;;;;;;21.02;10.25;;;11.40;99.90;;;;;;6149617;23;20445;-83
2023/10/07 07:05:27;;;;;;;15.52;9.25;;;11.70;99.90;;;;;;6125883;23;20018;-83
2023/10/07 07:08:03;;;;;;;19.48;9.65;;;11.90;99.90;;;;;;6129338;23;20030;-85
2023/10/07 07:10:31;;;;;;;17.02;9.57;;;12.10;99.90;;;;;;6128597;23;20088;-87
2023/10/07 07:13:12;;;;;;;28.95;11.98;;;12.20;99.90;;;;;;6124507;23;20022;-86
2023/10/07 07:15:41;;;;;;;18.17;10.43;;;12.30;99.90;;;;;;6124158;23;20073;-84
2023/10/07 07:18:14;;;;;;;16.63;10.45;;;12.30;99.90;;;;;;6125912;23;20459;-85
2023/10/07 07:21:00;;;;;;;17.23;11.60;;;12.30;99.90;;;;;;6128165;23;20033;-83
2023/10/07 07:23:40;;;;;;;36.22;12.88;;;12.50;99.90;;;;;;6153797;23;20037;-81
2023/10/07 07:26:18;;;;;;;20.25;9.98;;;12.60;99.90;;;;;;6156874;23;20062;-83
2023/10/07 07:28:44;;;;;;;15.68;9.23;;;12.80;99.90;;;;;;6158114;23;20010;-83
2023/10/07 07:31:18;;;;;;;19.40;9.38;;;13.00;99.90;;;;;;6136231;23;20026;-81
2023/10/07 07:33:50;;;;;;;16.13;9.48;;;13.20;99.90;;;;;;6124722;23;20384;-82
2023/10/07 07:36:37;;;;;;;17.75;9.77;;;13.40;99.90;;;;;;6126109;23;20088;-80
2023/10/07 07:39:09;;;;;;;20.60;10.95;;;13.60;99.90;;;;;;6122725;23;20028;-85
2023/10/07 07:41:55;;;;;;;16.75;8.75;;;13.70;99.90;;;;;;6126024;23;20018;-81
2023/10/07 07:44:33;;;;;;;15.05;7.78;;;13.80;99.90;;;;;;6123541;23;20032;-79
2023/10/07 07:47:02;;;;;;;15.38;8.75;;;14.00;99.90;;;;;;6133074;23;20044;-81
2023/10/07 07:49:32;;;;;;;12.35;6.28;;;14.20;99.90;;;;;;6123016;23;20091;-85
2023/10/07 07:52:08;;;;;;;18.05;8.05;;;14.40;99.90;;;;;;6159218;23;20461;-83
2023/10/07 07:54:39;;;;;;;14.05;7.47;;;14.50;99.90;;;;;;6122673;23;20026;-79
2023/10/07 07:57:07;;;;;;;13.10;8.00;;;14.60;99.90;;;;;;6145952;23;20018;-82
2023/10/07 07:59:35;;;;;;;19.60;9.30;;;14.70;99.90;;;;;;6127651;23;20014;-80
2023/10/07 08:02:12;;;;;;;15.90;8.23;;;14.80;99.90;;;;;;6122872;23;20037;-81
2023/10/07 08:04:43;;;;;;;17.80;8.57;;;14.90;99.90;;;;;;6138763;23;20072;-79
2023/10/07 08:07:18;;;;;;;17.63;9.85;;;15.00;99.90;;;;;;6134280;23;20112;-77
2023/10/07 08:09:50;;;;;;;22.67;8.80;;;15.20;99.90;;;;;;6127556;23;20315;-82
2023/10/07 08:12:28;;;;;;;17.58;9.85;;;15.30;99.90;;;;;;6130376;23;20065;-82
2023/10/07 08:14:58;;;;;;;14.93;7.50;;;15.50;99.90;;;;;;6146162;23;20041;-78
2023/10/07 08:17:27;;;;;;;15.70;8.82;;;15.70;99.90;;;;;;6098744;23;20062;-81
2023/10/07 08:19:56;;;;;;;14.90;7.80;;;15.80;99.90;;;;;;6115830;23;20053;-82
2023/10/07 08:22:23;;;;;;;16.10;8.40;;;15.80;99.90;;;;;;6092807;23;20023;-80
2023/10/07 08:24:53;;;;;;;20.27;10.30;;;16.00;99.90;;;;;;6122498;23;20022;-81
2023/10/07 08:30:13;;;;;;;17.52;9.90;;;16.10;99.90;;;;;;6125005;23;20026;-80
2023/10/07 08:32:41;;;;;;;27.83;12.05;;;16.10;99.90;;;;;;6127829;23;20045;-79
2023/10/07 08:35:17;;;;;;;23.02;11.23;;;16.10;99.90;;;;;;6131478;23;20462;-84
2023/10/07 08:37:49;;;;;;;15.23;9.77;;;16.30;99.90;;;;;;6134678;23;20021;-87
2023/10/07 08:40:49;;;;;;;18.75;9.80;;;16.50;99.90;;;;;;6149153;23;20014;-81
2023/10/07 08:43:25;;;;;;;18.85;9.90;;;16.70;99.90;;;;;;6125001;23;20050;-82
2023/10/07 08:46:01;;;;;;;17.25;10.48;;;16.80;99.90;;;;;;6135053;23;20029;-82
2023/10/07 08:48:38;;;;;;;17.63;9.80;;;16.80;99.90;;;;;;6120913;23;20022;-82
2023/10/07 08:51:14;;;;;;;18.92;10.00;;;16.80;99.90;;;;;;6122115;23;20282;-82
2023/10/07 08:53:42;;;;;;;16.92;9.55;;;16.80;99.90;;;;;;6122617;23;20036;-80
2023/10/07 08:56:17;;;;;;;16.88;10.50;;;16.80;99.90;;;;;;6120380;23;20022;-80
2023/10/07 08:58:49;;;;;;;82.53;20.80;;;16.80;99.90;;;;;;6129657;23;20026;-78
2023/10/07 09:01:24;;;;;;;15.80;9.00;;;16.90;99.90;;;;;;6132912;23;20017;-81
2023/10/07 09:04:00;;;;;;;19.67;11.00;;;16.90;99.90;;;;;;6122516;23;20363;-78
2023/10/07 09:06:32;;;;;;;14.95;9.07;;;16.90;99.90;;;;;;6123294;23;20041;-78
2023/10/07 09:09:06;;;;;;;11.95;8.68;;;17.00;99.90;;;;;;6128995;23;20050;-79
2023/10/07 09:11:39;;;;;;;16.65;9.25;;;17.10;99.90;;;;;;6137175;23;20065;-81
2023/10/07 09:14:10;;;;;;;17.48;10.82;;;17.30;99.90;;;;;;6137130;23;20022;-81
2023/10/07 09:16:40;;;;;;;24.27;15.88;;;17.40;99.90;;;;;;6131120;23;20014;-78
2023/10/07 09:19:23;;;;;;;15.95;9.40;;;17.50;99.90;;;;;;6134556;23;20029;-85
2023/10/07 09:21:57;;;;;;;18.20;8.93;;;17.80;99.90;;;;;;6125613;23;20057;-81
2023/10/07 09:24:25;;;;;;;17.25;9.70;;;17.80;99.90;;;;;;6125769;23;20319;-79
2023/10/07 09:30:48;;;;;;;24.45;10.60;;;18.00;99.90;;;;;;6024345;23;20078;-79
2023/10/07 09:33:24;;;;;;;14.75;9.18;;;18.10;99.90;;;;;;6025276;23;20027;-81
2023/10/07 09:36:23;;;;;;;15.88;9.57;;;18.10;99.90;;;;;;6037557;23;20027;-80
2023/10/07 09:39:16;;;;;;;16.90;9.25;;;18.10;99.90;;;;;;6059665;23;20027;-80
2023/10/07 09:42:00;;;;;;;14.50;10.20;;;18.30;99.90;;;;;;6008058;23;20035;-81
2023/10/07 09:44:37;;;;;;;18.95;10.57;;;18.40;99.90;;;;;;6060509;23;20015;-80
2023/10/07 10:00:40;;;;;;;20.65;11.35;;;18.50;99.90;;;;;;5894196;24;20024;-87
2023/10/07 10:03:45;;;;;;;17.40;9.68;;;18.60;99.90;;;;;;5958060;24;20021;-87
2023/10/07 10:06:39;;;;;;;14.40;8.85;;;18.70;99.90;;;;;;5928307;24;20031;-89
2023/10/07 10:09:42;;;;;;;21.38;11.57;;;18.90;99.90;;;;;;5930919;24;20220;-89
2023/10/07 10:23:48;;;;;;;12.90;6.68;;;19.10;99.90;;;;;;5967561;23;20022;-84
2023/10/07 10:26:48;;;;;;;18.05;7.70;;;19.30;99.90;;;;;;6109397;23;20041;-84
2023/10/07 10:33:49;;;;;;;;;;;;;;;;;;;;;
2023/10/07 10:39:41;;;;;;;9.20;5.45;;;19.80;99.90;;;;;;6104835;23;20025;-86
2023/10/07 10:42:15;;;;;;;12.00;6.00;;;19.80;99.90;;;;;;6091821;23;20089;-85
2023/10/07 10:44:48;;;;;;;12.40;6.65;;;19.80;99.90;;;;;;6098318;23;20093;-87
2023/10/07 10:49:59;;;;;;;12.50;7.63;;;19.80;99.90;;;;;;6101251;23;20022;-89
2023/10/07 10:52:27;;;;;;;18.73;8.13;;;19.80;99.90;;;;;;6096740;23;20131;-87
2023/10/07 10:54:58;;;;;;;12.95;7.53;;;20.00;99.90;;;;;;6104196;23;20037;-90
2023/10/07 10:57:26;;;;;;;14.95;9.48;;;20.00;99.90;;;;;;6100902;23;20110;-91
2023/10/07 10:59:55;;;;;;;13.77;8.45;;;20.10;99.90;;;;;;6076753;23;20098;-89
2023/10/07 11:02:23;;;;;;;12.40;8.32;;;20.40;99.90;;;;;;6099881;23;20081;-89
2023/10/07 11:04:54;;;;;;;11.93;8.30;;;20.50;99.90;;;;;;6098274;23;20027;-91
2023/10/07 11:07:23;;;;;;;12.95;7.60;;;20.60;99.90;;;;;;6099806;23;20035;-89
2023/10/07 11:10:00;;;;;;;8.55;5.43;;;20.70;99.90;;;;;;6100970;23;20085;-90
2023/10/07 11:12:28;;;;;;;9.80;5.85;;;20.70;99.90;;;;;;6116491;23;20050;-86
2023/10/07 11:15:12;;;;;;;10.55;6.57;;;20.60;99.90;;;;;;6116125;23;20033;-89
2023/10/07 11:17:42;;;;;;;13.30;8.98;;;20.60;99.90;;;;;;6119298;23;20343;-88
2023/10/07 11:20:19;;;;;;;10.25;6.97;;;20.70;99.90;;;;;;6115348;23;20011;-89
2023/10/07 11:22:49;;;;;;;11.52;6.63;;;20.70;99.90;;;;;;6090943;23;20034;-88
2023/10/07 11:25:24;;;;;;;12.02;6.65;;;20.70;97.40;;;;;;6100671;23;20023;-88
2023/10/07 11:27:58;;;;;;;12.63;6.80;;;20.70;96.20;;;;;;6098843;23;20031;-90
2023/10/07 11:30:30;;;;;;;11.85;7.00;;;20.80;95.90;;;;;;6090385;23;20018;-90
2023/10/07 11:33:01;;;;;;;8.43;5.32;;;20.80;94.60;;;;;;6101686;23;20052;-91
2023/10/07 11:35:31;;;;;;;11.88;6.85;;;20.90;94.80;;;;;;6102123;23;20458;-91
2023/10/07 11:37:59;;;;;;;11.27;5.13;;;20.90;94.30;;;;;;6105364;23;20023;-87
2023/10/07 11:40:30;;;;;;;9.48;5.30;;;21.00;91.70;;;;;;6116157;23;20025;-87
2023/10/07 11:43:02;;;;;;;12.55;5.63;;;21.10;93.10;;;;;;6104798;23;20077;-89
2023/10/07 11:45:30;;;;;;;11.30;6.03;;;21.20;93.30;;;;;;6103380;23;20026;-87
2023/10/07 11:47:58;;;;;;;13.25;5.85;;;21.30;92.20;;;;;;6106552;23;20018;-87
2023/10/07 11:50:29;;;;;;;12.30;5.88;;;21.20;91.60;;;;;;6107710;23;20022;-87
2023/10/07 11:52:57;;;;;;;8.77;5.18;;;21.20;91.50;;;;;;6105425;23;20394;-89
2023/10/07 11:55:36;;;;;;;10.43;5.85;;;21.20;91.10;;;;;;6102082;23;20026;-89
2023/10/07 11:58:09;;;;;;;10.05;5.38;;;21.20;91.80;;;;;;6106631;23;20015;-88
2023/10/07 12:00:37;;;;;;;11.93;5.22;;;21.10;91.40;;;;;;6105581;23;20026;-88
2023/10/07 12:03:08;;;;;;;9.40;5.38;;;21.10;90.80;;;;;;6106007;23;20029;-87
2023/10/07 12:05:39;;;;;;;10.57;6.85;;;21.10;88.20;;;;;;6106722;23;20006;-88
2023/10/07 12:08:11;;;;;;;11.63;5.88;;;21.20;83.40;;;;;;6115601;23;20026;-88
2023/10/07 12:10:41;;;;;;;8.80;4.25;;;21.30;82.60;;;;;;6109142;23;20046;-88
2023/10/07 12:13:11;;;;;;;14.20;9.05;;;21.30;74.70;;;;;;6109249;23;20054;-88
2023/10/07 12:15:42;;;;;;;9.27;5.38;;;21.40;72.60;;;;;;6107195;23;20057;-88
2023/10/07 12:18:12;;;;;;;11.88;5.43;;;21.40;71.70;;;;;;6112141;23;20511;-90
2023/10/07 12:20:41;;;;;;;8.80;5.82;;;21.40;70.90;;;;;;6111190;23;20079;-87
2023/10/07 12:23:08;;;;;;;8.52;5.22;;;21.40;71.00;;;;;;6107907;23;20033;-89
2023/10/07 12:25:37;;;;;;;10.88;6.63;;;21.40;71.00;;;;;;6107810;23;20029;-88
2023/10/07 12:28:08;;;;;;;10.73;5.22;;;21.50;69.90;;;;;;6108198;23;20019;-88
2023/10/07 12:30:37;;;;;;;15.48;6.60;;;21.50;68.00;;;;;;6101480;23;20022;-89
2023/10/07 12:33:08;;;;;;;9.75;4.85;;;21.60;65.80;;;;;;6102642;23;20029;-89
2023/10/07 12:35:37;;;;;;;8.23;4.80;;;21.60;63.80;;;;;;6103149;23;20022;-89
2023/10/07 12:38:09;;;;;;;10.43;5.20;;;21.60;62.10;;;;;;6079705;23;20018;-89
2023/10/07 12:40:41;;;;;;;10.98;6.93;;;21.60;62.90;;;;;;6104256;23;20018;-89
2023/10/07 12:43:13;;;;;;;10.48;6.07;;;21.70;64.20;;;;;;6103627;23;20121;-88
2023/10/07 12:45:45;;;;;;;9.80;5.20;;;21.80;63.70;;;;;;6102629;23;20033;-89
2023/10/07 12:48:13;;;;;;;8.93;6.13;;;22.00;61.10;;;;;;6098546;23;20029;-87
2023/10/07 12:50:43;;;;;;;10.90;5.05;;;22.10;58.80;;;;;;6098183;23;20034;-87
2023/10/07 12:53:10;;;;;;;10.88;5.38;;;22.20;57.40;;;;;;6096895;23;20475;-89
2023/10/07 12:55:39;;;;;;;12.82;8.15;;;22.10;56.50;;;;;;6063621;23;20022;-87
2023/10/07 12:58:09;;;;;;;12.70;7.85;;;22.00;56.80;;;;;;6122638;23;20034;-86
2023/10/07 13:00:41;;;;;;;11.88;7.45;;;22.10;56.50;;;;;;6096994;23;20023;-88
2023/10/07 13:03:09;;;;;;;12.27;6.50;;;22.00;56.50;;;;;;6098737;23;20050;-88
2023/10/07 13:05:37;;;;;;;11.93;5.75;;;22.00;56.40;;;;;;6097421;23;20118;-87
2023/10/07 13:08:12;;;;;;;10.57;5.88;;;22.20;54.10;;;;;;6098343;23;20022;-86
2023/10/07 13:10:40;;;;;;;13.00;6.45;;;22.10;53.20;;;;;;6096691;23;20022;-89
2023/10/07 13:13:07;;;;;;;10.05;6.70;;;22.10;54.10;;;;;;6097983;23;20023;-89
2023/10/07 13:15:37;;;;;;;10.63;6.78;;;22.00;54.00;;;;;;6096549;23;20026;-86
2023/10/07 13:18:09;;;;;;;12.05;5.68;;;22.00;49.90;;;;;;6104924;23;20054;-87
2023/10/07 13:20:40;;;;;;;8.25;4.47;;;22.10;43.90;;;;;;6105591;23;20036;-89
2023/10/07 13:23:11;;;;;;;7.65;5.15;;;22.20;39.30;;;;;;6098754;23;20018;-89
2023/10/07 13:25:40;;;;;;;13.68;7.13;;;22.20;38.90;;;;;;6099778;23;20101;-88
2023/10/07 13:28:10;;;;;;;8.13;5.65;;;22.20;40.40;;;;;;6100909;23;20015;-86
2023/10/07 13:30:39;;;;;;;11.93;7.00;;;22.20;38.50;;;;;;6100338;23;20028;-87
2023/10/07 13:33:10;;;;;;;7.30;5.30;;;22.20;39.50;;;;;;6104308;23;20027;-89
2023/10/07 13:35:38;;;;;;;9.88;5.53;;;22.30;40.50;;;;;;6103564;23;20034;-88
2023/10/07 13:38:11;;;;;;;11.82;5.75;;;22.40;41.00;;;;;;6096474;23;20347;-86
2023/10/07 13:40:39;;;;;;;9.05;6.03;;;22.40;42.00;;;;;;6098644;23;20050;-87
2023/10/07 13:43:09;;;;;;;12.10;6.35;;;22.40;41.80;;;;;;6097805;23;20435;-88
2023/10/07 13:45:37;;;;;;;14.07;8.55;;;22.30;41.10;;;;;;6095731;23;20347;-88
2023/10/07 13:48:07;;;;;;;8.82;6.30;;;22.40;40.70;;;;;;6102804;23;20027;-86
2023/10/07 13:50:37;;;;;;;9.73;5.82;;;22.40;40.20;;;;;;6097612;23;20023;-87
2023/10/07 13:53:13;;;;;;;10.70;5.45;;;22.40;38.10;;;;;;6096154;23;20101;-88
2023/10/07 13:58:23;;;;;;;10.50;6.07;;;22.30;37.20;;;;;;6093378;23;20053;-87
2023/10/07 14:00:53;;;;;;;11.13;6.43;;;22.40;36.90;;;;;;6103574;23;20037;-87
2023/10/07 14:03:31;;;;;;;9.98;5.85;;;22.40;37.10;;;;;;6100799;23;20384;-87
2023/10/07 14:06:01;;;;;;;8.18;5.63;;;22.30;36.40;;;;;;6107243;23;20031;-87